sensor_id;sensor_type;location;lat;lon;timestamp;pressure;altitude;pressure_sealevel;temperature;humidity
51849;BME280;38952;51.090;-1.832;2023-02-01T00:00:10;101431.53;;;3.22;100.00
51849;BME280;38952;51.090;-1.832;2023-02-01T00:02:37;101406.34;;;3.21;100.00
51849;BME280;38952;51.090;-1.832;2023-02-01T00:05:07;101403.66;;;3.21;100.00
51849;BME280;38952;51.090;-1.832;2023-02-01T00:07:34;101409.91;;;3.22;100.00
51849;BME280;38952;51.090;-1.832;2023-02-01T00:09:59;101407.13;;;3.15;100.00
51849;BME280;38952;51.090;-1.832;2023-02-01T00:12:25;101392.31;;;3.11;100.00
51849;BME280;38952;51.090;-1.832;2023-02-01T00:14:50;101410.22;;;3.12;100.00
51849;BME280;38952;51.090;-1.832;2023-02-01T00:17:16;101420.63;;;3.15;100.00
51849;BME280;38952;51.090;-1.832;2023-02-01T00:19:41;101398.59;;;3.11;100.00
51849;BME280;38952;51.090;-1.832;2023-02-01T00:22:06;101400.06;;;3.14;100.00
51849;BME280;38952;51.090;-1.832;2023-02-01T00:24:32;101397.72;;;3.11;100.00
51849;BME280;38952;51.090;-1.832;2023-02-01T00:26:57;101395.03;;;3.11;100.00
51849;BME280;38952;51.090;-1.832;2023-02-01T00:29:23;101384.41;;;3.09;100.00
51849;BME280;38952;51.090;-1.832;2023-02-01T00:31:50;101385.25;;;3.10;100.00
51849;BME280;38952;51.090;-1.832;2023-02-01T00:34:16;101388.19;;;3.15;100.00
51849;BME280;38952;51.090;-1.832;2023-02-01T00:36:43;101400.69;;;3.16;100.00
51849;BME280;38952;51.090;-1.832;2023-02-01T00:39:10;101384.88;;;3.13;100.00
51849;BME280;38952;51.090;-1.832;2023-02-01T00:41:36;101378.44;;;3.14;100.00
51849;BME280;38952;51.090;-1.832;2023-02-01T00:44:02;101382.78;;;3.15;100.00
51849;BME280;38952;51.090;-1.832;2023-02-01T00:46:27;101392.31;;;3.11;100.00
51849;BME280;38952;51.090;-1.832;2023-02-01T00:48:53;101399.41;;;3.12;100.00
51849;BME280;38952;51.090;-1.832;2023-02-01T00:51:21;101411.25;;;3.11;100.00
51849;BME280;38952;51.090;-1.832;2023-02-01T00:53:48;101408.28;;;3.06;100.00
51849;BME280;38952;51.090;-1.832;2023-02-01T00:56:13;101399.00;;;2.93;100.00
51849;BME280;38952;51.090;-1.832;2023-02-01T00:58:39;101384.78;;;2.85;100.00
51849;BME280;38952;51.090;-1.832;2023-02-01T01:01:05;101393.88;;;2.99;100.00
51849;BME280;38952;51.090;-1.832;2023-02-01T01:03:32;101393.88;;;2.99;100.00
51849;BME280;38952;51.090;-1.832;2023-02-01T01:06:02;101389.25;;;2.92;100.00
51849;BME280;38952;51.090;-1.832;2023-02-01T01:08:28;101379.84;;;2.88;100.00
51849;BME280;38952;51.090;-1.832;2023-02-01T01:10:54;101372.75;;;2.87;100.00
51849;BME280;38952;51.090;-1.832;2023-02-01T01:13:19;101380.84;;;2.87;100.00
51849;BME280;38952;51.090;-1.832;2023-02-01T01:15:45;101380.22;;;2.85;100.00
51849;BME280;38952;51.090;-1.832;2023-02-01T01:18:10;101370.44;;;2.84;100.00
51849;BME280;38952;51.090;-1.832;2023-02-01T01:20:38;101372.13;;;2.85;100.00
51849;BME280;38952;51.090;-1.832;2023-02-01T01:23:05;101361.16;;;2.93;100.00
51849;BME280;38952;51.090;-1.832;2023-02-01T01:25:31;101349.72;;;2.91;100.00
51849;BME280;38952;51.090;-1.832;2023-02-01T01:27:56;101358.13;;;2.96;100.00
51849;BME280;38952;51.090;-1.832;2023-02-01T01:30:24;101364.91;;;2.92;100.00
51849;BME280;38952;51.090;-1.832;2023-02-01T01:32:49;101367.25;;;2.95;100.00
51849;BME280;38952;51.090;-1.832;2023-02-01T01:35:14;101363.50;;;2.96;100.00
51849;BME280;38952;51.090;-1.832;2023-02-01T01:37:40;101350.13;;;2.88;100.00
51849;BME280;38952;51.090;-1.832;2023-02-01T01:40:07;101348.19;;;2.82;100.00
51849;BME280;38952;51.090;-1.832;2023-02-01T01:42:39;101351.91;;;2.81;100.00
51849;BME280;38952;51.090;-1.832;2023-02-01T01:47:50;101358.66;;;2.70;100.00
51849;BME280;38952;51.090;-1.832;2023-02-01T01:50:21;101363.22;;;2.70;100.00
51849;BME280;38952;51.090;-1.832;2023-02-01T01:52:50;101370.81;;;2.81;100.00
51849;BME280;38952;51.090;-1.832;2023-02-01T01:55:18;101380.66;;;2.89;100.00
51849;BME280;38952;51.090;-1.832;2023-02-01T01:57:50;101375.72;;;2.92;100.00
51849;BME280;38952;51.090;-1.832;2023-02-01T02:00:19;101383.44;;;2.95;100.00
51849;BME280;38952;51.090;-1.832;2023-02-01T02:02:47;101382.25;;;2.98;100.00
51849;BME280;38952;51.090;-1.832;2023-02-01T02:05:16;101369.75;;;2.97;100.00
51849;BME280;38952;51.090;-1.832;2023-02-01T02:07:46;101365.25;;;3.04;100.00
51849;BME280;38952;51.090;-1.832;2023-02-01T02:10:12;101369.78;;;3.04;100.00
51849;BME280;38952;51.090;-1.832;2023-02-01T02:12:41;101370.84;;;3.03;100.00
51849;BME280;38952;51.090;-1.832;2023-02-01T02:15:13;101363.38;;;3.05;100.00
51849;BME280;38952;51.090;-1.832;2023-02-01T02:17:58;101359.84;;;3.04;100.00
51849;BME280;38952;51.090;-1.832;2023-02-01T02:21:30;101360.88;;;3.03;100.00
51849;BME280;38952;51.090;-1.832;2023-02-01T02:34:27;101369.03;;;3.10;100.00
51849;BME280;38952;51.090;-1.832;2023-02-01T02:39:53;101373.00;;;3.36;100.00
51849;BME280;38952;51.090;-1.832;2023-02-01T02:42:41;101368.97;;;3.53;100.00
51849;BME280;38952;51.090;-1.832;2023-02-01T02:45:44;101383.75;;;3.79;99.94
51849;BME280;38952;51.090;-1.832;2023-02-01T02:51:52;101363.94;;;4.07;98.10
51849;BME280;38952;51.090;-1.832;2023-02-01T02:54:41;101370.84;;;4.16;96.89
51849;BME280;38952;51.090;-1.832;2023-02-01T02:57:32;101376.50;;;4.21;96.83
51849;BME280;38952;51.090;-1.832;2023-02-01T03:00:21;101376.34;;;4.29;96.09
51849;BME280;38952;51.090;-1.832;2023-02-01T03:03:07;101373.44;;;4.31;96.14
51849;BME280;38952;51.090;-1.832;2023-02-01T03:05:51;101373.66;;;4.29;95.67
51849;BME280;38952;51.090;-1.832;2023-02-01T03:08:19;101376.56;;;4.34;95.89
51849;BME280;38952;51.090;-1.832;2023-02-01T03:11:06;101377.84;;;4.39;95.53
51849;BME280;38952;51.090;-1.832;2023-02-01T03:13:45;101377.69;;;4.47;95.49
51849;BME280;38952;51.090;-1.832;2023-02-01T03:16:35;101388.16;;;4.63;94.39
51849;BME280;38952;51.090;-1.832;2023-02-01T03:19:15;101391.72;;;4.70;94.33
51849;BME280;38952;51.090;-1.832;2023-02-01T03:24:41;101370.91;;;4.78;93.99
51849;BME280;38952;51.090;-1.832;2023-02-01T03:32:19;101362.09;;;4.62;93.88
51849;BME280;38952;51.090;-1.832;2023-02-01T03:34:46;101364.63;;;4.70;93.96
51849;BME280;38952;51.090;-1.832;2023-02-01T03:37:17;101372.56;;;4.79;94.02
51849;BME280;38952;51.090;-1.832;2023-02-01T03:39:59;101365.94;;;4.88;93.92
51849;BME280;38952;51.090;-1.832;2023-02-01T03:42:49;101368.63;;;4.88;92.72
51849;BME280;38952;51.090;-1.832;2023-02-01T03:45:24;101367.19;;;4.92;92.82
51849;BME280;38952;51.090;-1.832;2023-02-01T03:47:55;101364.47;;;4.92;91.86
51849;BME280;38952;51.090;-1.832;2023-02-01T03:50:23;101369.25;;;4.90;91.23
51849;BME280;38952;51.090;-1.832;2023-02-01T03:55:22;101356.50;;;4.70;92.20
51849;BME280;38952;51.090;-1.832;2023-02-01T03:57:55;101346.44;;;4.58;91.92
51849;BME280;38952;51.090;-1.832;2023-02-01T04:00:24;101357.94;;;4.66;91.38
51849;BME280;38952;51.090;-1.832;2023-02-01T04:02:50;101349.56;;;4.61;91.99
51849;BME280;38952;51.090;-1.832;2023-02-01T04:05:16;101349.13;;;4.44;91.77
51849;BME280;38952;51.090;-1.832;2023-02-01T04:07:42;101346.31;;;4.24;91.69
51849;BME280;38952;51.090;-1.832;2023-02-01T04:10:08;101350.41;;;4.07;92.64
51849;BME280;38952;51.090;-1.832;2023-02-01T04:12:34;101339.25;;;3.88;93.79
51849;BME280;38952;51.090;-1.832;2023-02-01T04:14:59;101333.38;;;3.78;94.56
51849;BME280;38952;51.090;-1.832;2023-02-01T04:17:25;101317.53;;;3.75;94.88
51849;BME280;38952;51.090;-1.832;2023-02-01T04:19:50;101332.97;;;3.81;94.56
51849;BME280;38952;51.090;-1.832;2023-02-01T04:22:15;101314.16;;;3.66;94.75
51849;BME280;38952;51.090;-1.832;2023-02-01T04:24:41;101322.88;;;3.61;95.43
51849;BME280;38952;51.090;-1.832;2023-02-01T04:27:06;101312.97;;;3.47;95.68
51849;BME280;38952;51.090;-1.832;2023-02-01T04:29:32;101307.34;;;3.42;95.60
51849;BME280;38952;51.090;-1.832;2023-02-01T04:31:58;101323.56;;;3.42;96.55
51849;BME280;38952;51.090;-1.832;2023-02-01T04:34:23;101321.50;;;3.44;95.90
51849;BME280;38952;51.090;-1.832;2023-02-01T04:36:50;101325.63;;;3.40;96.10
51849;BME280;38952;51.090;-1.832;2023-02-01T04:39:15;101322.28;;;3.38;96.15
51849;BME280;38952;51.090;-1.832;2023-02-01T04:41:41;101323.06;;;3.31;96.70
51849;BME280;38952;51.090;-1.832;2023-02-01T04:44:13;101330.50;;;3.23;96.00
51849;BME280;38952;51.090;-1.832;2023-02-01T04:46:39;101343.41;;;3.27;96.49
51849;BME280;38952;51.090;-1.832;2023-02-01T04:49:04;101341.34;;;3.29;97.18
51849;BME280;38952;51.090;-1.832;2023-02-01T04:51:30;101339.63;;;3.22;97.07
51849;BME280;38952;51.090;-1.832;2023-02-01T04:53:55;101344.56;;;3.18;96.85
51849;BME280;38952;51.090;-1.832;2023-02-01T04:56:21;101338.53;;;3.16;97.02
51849;BME280;38952;51.090;-1.832;2023-02-01T04:58:46;101328.13;;;3.13;97.36
51849;BME280;38952;51.090;-1.832;2023-02-01T05:01:12;101331.66;;;3.13;97.76
51849;BME280;38952;51.090;-1.832;2023-02-01T05:03:37;101327.84;;;3.08;98.03
51849;BME280;38952;51.090;-1.832;2023-02-01T05:06:03;101316.53;;;2.97;97.57
51849;BME280;38952;51.090;-1.832;2023-02-01T05:08:30;101345.31;;;3.05;98.60
51849;BME280;38952;51.090;-1.832;2023-02-01T05:10:56;101348.94;;;2.97;98.03
51849;BME280;38952;51.090;-1.832;2023-02-01T05:13:22;101341.44;;;2.93;99.46
51849;BME280;38952;51.090;-1.832;2023-02-01T05:16:06;101344.78;;;2.95;99.44
51849;BME280;38952;51.090;-1.832;2023-02-01T05:18:31;101350.25;;;3.02;100.00
51849;BME280;38952;51.090;-1.832;2023-02-01T05:20:57;101345.84;;;3.22;99.70
51849;BME280;38952;51.090;-1.832;2023-02-01T05:23:22;101355.56;;;3.38;99.50
51849;BME280;38952;51.090;-1.832;2023-02-01T05:25:48;101345.44;;;3.47;99.77
51849;BME280;38952;51.090;-1.832;2023-02-01T05:28:13;101347.34;;;3.53;99.45
51849;BME280;38952;51.090;-1.832;2023-02-01T05:30:38;101355.75;;;3.65;98.60
51849;BME280;38952;51.090;-1.832;2023-02-01T05:33:04;101365.84;;;3.78;98.80
51849;BME280;38952;51.090;-1.832;2023-02-01T05:35:30;101371.50;;;3.83;98.09
51849;BME280;38952;51.090;-1.832;2023-02-01T05:37:55;101369.81;;;3.82;98.80
51849;BME280;38952;51.090;-1.832;2023-02-01T05:40:21;101362.50;;;3.76;97.97
51849;BME280;38952;51.090;-1.832;2023-02-01T05:42:46;101363.53;;;3.75;98.37
51849;BME280;38952;51.090;-1.832;2023-02-01T05:45:12;101366.22;;;3.75;98.02
51849;BME280;38952;51.090;-1.832;2023-02-01T05:47:37;101364.31;;;3.69;98.80
51849;BME280;38952;51.090;-1.832;2023-02-01T05:50:04;101375.00;;;3.77;98.74
51849;BME280;38952;51.090;-1.832;2023-02-01T05:52:30;101357.91;;;3.76;98.26
51849;BME280;38952;51.090;-1.832;2023-02-01T05:54:55;101358.00;;;3.90;97.97
51849;BME280;38952;51.090;-1.832;2023-02-01T05:57:21;101350.47;;;3.85;98.33
51849;BME280;38952;51.090;-1.832;2023-02-01T05:59:47;101345.31;;;3.90;97.99
51849;BME280;38952;51.090;-1.832;2023-02-01T06:02:17;101326.53;;;3.82;98.30
51849;BME280;38952;51.090;-1.832;2023-02-01T06:04:42;101328.00;;;3.84;97.87
51849;BME280;38952;51.090;-1.832;2023-02-01T06:07:08;101314.81;;;3.75;97.52
51849;BME280;38952;51.090;-1.832;2023-02-01T06:09:36;101300.81;;;3.64;98.55
51849;BME280;38952;51.090;-1.832;2023-02-01T06:12:03;101308.72;;;3.59;98.65
51849;BME280;38952;51.090;-1.832;2023-02-01T06:14:29;101303.25;;;3.53;99.74
51849;BME280;38952;51.090;-1.832;2023-02-01T06:16:54;101304.44;;;3.43;99.81
51849;BME280;38952;51.090;-1.832;2023-02-01T06:19:21;101293.56;;;3.37;99.75
51849;BME280;38952;51.090;-1.832;2023-02-01T06:21:47;101289.75;;;3.24;100.00
51849;BME280;38952;51.090;-1.832;2023-02-01T06:24:12;101286.78;;;3.19;100.00
51849;BME280;38952;51.090;-1.832;2023-02-01T06:26:38;101281.69;;;3.09;100.00
51849;BME280;38952;51.090;-1.832;2023-02-01T06:29:11;101280.78;;;2.95;100.00
51849;BME280;38952;51.090;-1.832;2023-02-01T07:07:35;101280.25;;;2.64;100.00
51849;BME280;38952;51.090;-1.832;2023-02-01T07:10:00;101302.16;;;2.69;100.00
51849;BME280;38952;51.090;-1.832;2023-02-01T07:12:26;101307.06;;;2.65;100.00
51849;BME280;38952;51.090;-1.832;2023-02-01T07:14:51;101287.03;;;2.53;100.00
51849;BME280;38952;51.090;-1.832;2023-02-01T07:17:17;101289.25;;;2.49;100.00
51849;BME280;38952;51.090;-1.832;2023-02-01T07:19:59;101310.75;;;2.57;100.00
51849;BME280;38952;51.090;-1.832;2023-02-01T07:22:28;101307.91;;;2.44;100.00
51849;BME280;38952;51.090;-1.832;2023-02-01T07:25:09;101321.94;;;2.54;100.00
51849;BME280;38952;51.090;-1.832;2023-02-01T07:27:55;101338.66;;;2.65;100.00
51849;BME280;38952;51.090;-1.832;2023-02-01T07:30:22;101301.22;;;2.40;100.00
51849;BME280;38952;51.090;-1.832;2023-02-01T07:33:15;101340.31;;;2.66;100.00
51849;BME280;38952;51.090;-1.832;2023-02-01T07:36:06;101303.13;;;2.46;100.00
51849;BME280;38952;51.090;-1.832;2023-02-01T07:38:48;101323.47;;;2.64;100.00
51849;BME280;38952;51.090;-1.832;2023-02-01T07:41:23;101354.22;;;2.84;100.00
51849;BME280;38952;51.090;-1.832;2023-02-01T07:44:22;101351.81;;;2.89;100.00
51849;BME280;38952;51.090;-1.832;2023-02-01T07:46:56;101357.84;;;2.91;100.00
51849;BME280;38952;51.090;-1.832;2023-02-01T07:49:21;101341.38;;;2.86;100.00
51849;BME280;38952;51.090;-1.832;2023-02-01T07:51:47;101344.72;;;2.88;100.00
51849;BME280;38952;51.090;-1.832;2023-02-01T07:54:25;101335.31;;;2.84;100.00
51849;BME280;38952;51.090;-1.832;2023-02-01T07:56:53;101331.84;;;2.90;100.00
51849;BME280;38952;51.090;-1.832;2023-02-01T07:59:34;101333.00;;;3.03;100.00
51849;BME280;38952;51.090;-1.832;2023-02-01T08:02:30;101314.91;;;3.03;100.00
51849;BME280;38952;51.090;-1.832;2023-02-01T08:05:02;101287.47;;;3.00;100.00
51849;BME280;38952;51.090;-1.832;2023-02-01T08:07:27;101302.50;;;3.09;100.00
51849;BME280;38952;51.090;-1.832;2023-02-01T08:09:53;101313.00;;;3.19;100.00
51849;BME280;38952;51.090;-1.832;2023-02-01T08:12:18;101313.19;;;3.17;100.00
51849;BME280;38952;51.090;-1.832;2023-02-01T08:14:51;101323.06;;;3.31;100.00
51849;BME280;38952;51.090;-1.832;2023-02-01T08:17:29;101306.84;;;3.31;100.00
51849;BME280;38952;51.090;-1.832;2023-02-01T08:20:07;101317.38;;;3.48;100.00
51849;BME280;38952;51.090;-1.832;2023-02-01T08:22:42;101339.56;;;3.72;100.00
51849;BME280;38952;51.090;-1.832;2023-02-01T08:25:10;101311.44;;;3.66;100.00
51849;BME280;38952;51.090;-1.832;2023-02-01T08:28:04;101345.94;;;3.92;100.00
51849;BME280;38952;51.090;-1.832;2023-02-01T08:30:30;101348.91;;;3.97;100.00
51849;BME280;38952;51.090;-1.832;2023-02-01T08:32:55;101333.44;;;3.91;100.00
51849;BME280;38952;51.090;-1.832;2023-02-01T08:38:57;101350.75;;;4.39;100.00
51849;BME280;38952;51.090;-1.832;2023-02-01T08:41:46;101364.22;;;4.74;100.00
51849;BME280;38952;51.090;-1.832;2023-02-01T09:04:52;101329.22;;;5.66;93.94
51849;BME280;38952;51.090;-1.832;2023-02-01T09:07:20;101342.56;;;5.81;93.30
51849;BME280;38952;51.090;-1.832;2023-02-01T09:09:49;101348.38;;;6.04;92.88
51849;BME280;38952;51.090;-1.832;2023-02-01T09:12:20;101343.84;;;6.43;92.40
51849;BME280;38952;51.090;-1.832;2023-02-01T09:14:48;101354.97;;;7.63;88.92
51849;BME280;38952;51.090;-1.832;2023-02-01T09:17:16;101350.34;;;9.05;80.75
51849;BME280;38952;51.090;-1.832;2023-02-01T09:19:52;101365.91;;;10.46;75.57
51849;BME280;38952;51.090;-1.832;2023-02-01T09:22:26;101335.84;;;11.38;68.74
51849;BME280;38952;51.090;-1.832;2023-02-01T09:24:53;101367.81;;;12.45;65.01
51849;BME280;38952;51.090;-1.832;2023-02-01T09:27:19;101338.13;;;12.64;61.38
51849;BME280;38952;51.090;-1.832;2023-02-01T09:30:02;101337.44;;;12.79;60.06
51849;BME280;38952;51.090;-1.832;2023-02-01T09:32:47;101357.28;;;12.86;59.90
51849;BME280;38952;51.090;-1.832;2023-02-01T09:35:15;101354.72;;;13.06;58.32
51849;BME280;38952;51.090;-1.832;2023-02-01T09:37:55;101360.00;;;12.81;59.15
51849;BME280;38952;51.090;-1.832;2023-02-01T09:40:35;101355.56;;;12.80;58.18
51849;BME280;38952;51.090;-1.832;2023-02-01T09:43:54;101386.09;;;13.10;58.78
51849;BME280;38952;51.090;-1.832;2023-02-01T09:46:28;101374.56;;;13.14;57.90
51849;BME280;38952;51.090;-1.832;2023-02-01T09:48:56;101384.31;;;13.54;56.89
51849;BME280;38952;51.090;-1.832;2023-02-01T09:51:55;101398.63;;;14.41;54.56
51849;BME280;38952;51.090;-1.832;2023-02-01T09:54:42;101415.25;;;14.62;53.44
51849;BME280;38952;51.090;-1.832;2023-02-01T09:57:27;101378.13;;;14.75;52.20
51849;BME280;38952;51.090;-1.832;2023-02-01T10:00:20;101393.91;;;15.31;51.09
51849;BME280;38952;51.090;-1.832;2023-02-01T10:02:49;101386.22;;;15.95;50.33
51849;BME280;38952;51.090;-1.832;2023-02-01T10:05:21;101388.03;;;16.30;48.96
51849;BME280;38952;51.090;-1.832;2023-02-01T10:17:20;101418.63;;;18.37;44.56
51849;BME280;38952;51.090;-1.832;2023-02-01T10:25:17;101430.09;;;18.74;43.33
51849;BME280;38952;51.090;-1.832;2023-02-01T10:28:07;101412.97;;;19.29;42.12
51849;BME280;38952;51.090;-1.832;2023-02-01T10:30:44;101416.53;;;20.00;41.01
51849;BME280;38952;51.090;-1.832;2023-02-01T10:33:33;101446.53;;;19.46;41.31
51849;BME280;38952;51.090;-1.832;2023-02-01T10:38:32;101408.88;;;19.78;41.08
51849;BME280;38952;51.090;-1.832;2023-02-01T10:41:22;101430.78;;;20.40;39.25
51849;BME280;38952;51.090;-1.832;2023-02-01T10:43:59;101397.41;;;20.54;38.82
51849;BME280;38952;51.090;-1.832;2023-02-01T10:46:33;101416.25;;;20.44;39.19
51849;BME280;38952;51.090;-1.832;2023-02-01T10:49:04;101413.63;;;20.66;39.00
51849;BME280;38952;51.090;-1.832;2023-02-01T10:54:14;101411.88;;;22.29;36.12
51849;BME280;38952;51.090;-1.832;2023-02-01T10:56:51;101417.25;;;21.26;38.18
51849;BME280;38952;51.090;-1.832;2023-02-01T10:59:25;101418.13;;;20.34;38.31
51849;BME280;38952;51.090;-1.832;2023-02-01T11:02:31;101431.75;;;16.78;44.19
51849;BME280;38952;51.090;-1.832;2023-02-01T11:05:08;101419.22;;;15.12;49.21
51849;BME280;38952;51.090;-1.832;2023-02-01T11:07:39;101399.22;;;14.54;51.47
51849;BME280;38952;51.090;-1.832;2023-02-01T11:13:31;101386.53;;;14.00;52.68
51849;BME280;38952;51.090;-1.832;2023-02-01T11:16:15;101410.94;;;15.02;50.95
51849;BME280;38952;51.090;-1.832;2023-02-01T11:18:46;101411.56;;;14.46;52.73
51849;BME280;38952;51.090;-1.832;2023-02-01T11:21:35;101405.88;;;14.63;52.82
51849;BME280;38952;51.090;-1.832;2023-02-01T11:24:04;101409.28;;;13.85;54.20
51849;BME280;38952;51.090;-1.832;2023-02-01T11:26:35;101387.88;;;13.54;55.41
51849;BME280;38952;51.090;-1.832;2023-02-01T11:29:17;101413.44;;;13.55;55.89
51849;BME280;38952;51.090;-1.832;2023-02-01T11:32:20;101382.06;;;12.25;59.39
51849;BME280;38952;51.090;-1.832;2023-02-01T11:35:05;101415.56;;;12.27;61.61
51849;BME280;38952;51.090;-1.832;2023-02-01T11:37:42;101401.75;;;12.38;59.48
51849;BME280;38952;51.090;-1.832;2023-02-01T11:43:00;101409.59;;;12.13;61.83
51849;BME280;38952;51.090;-1.832;2023-02-01T11:45:39;101414.78;;;12.09;62.20
51849;BME280;38952;51.090;-1.832;2023-02-01T11:48:10;101406.28;;;13.54;58.77
51849;BME280;38952;51.090;-1.832;2023-02-01T12:07:39;101428.00;;;13.88;53.78
51849;BME280;38952;51.090;-1.832;2023-02-01T12:16:15;101420.91;;;15.24;50.92
51849;BME280;38952;51.090;-1.832;2023-02-01T12:19:08;101439.44;;;13.74;54.32
51849;BME280;38952;51.090;-1.832;2023-02-01T12:40:03;101424.22;;;11.05;61.94
51849;BME280;38952;51.090;-1.832;2023-02-01T12:42:40;101399.81;;;10.34;64.22
51849;BME280;38952;51.090;-1.832;2023-02-01T12:48:35;101390.91;;;10.03;67.69
51849;BME280;38952;51.090;-1.832;2023-02-01T12:58:53;101385.81;;;9.71;67.61
51849;BME280;38952;51.090;-1.832;2023-02-01T13:01:45;101382.34;;;9.64;68.67
51849;BME280;38952;51.090;-1.832;2023-02-01T13:07:49;101409.94;;;10.09;70.93
51849;BME280;38952;51.090;-1.832;2023-02-01T13:10:46;101370.03;;;9.96;71.32
51849;BME280;38952;51.090;-1.832;2023-02-01T13:13:42;101358.03;;;9.98;70.26
51849;BME280;38952;51.090;-1.832;2023-02-01T13:18:51;101393.91;;;9.77;70.33
51849;BME280;38952;51.090;-1.832;2023-02-01T13:21:42;101396.72;;;9.71;69.67
51849;BME280;38952;51.090;-1.832;2023-02-01T13:24:26;101414.53;;;9.61;70.84
51849;BME280;38952;51.090;-1.832;2023-02-01T13:42:03;101380.97;;;9.07;73.77
51849;BME280;38952;51.090;-1.832;2023-02-01T13:45:19;101360.25;;;8.87;73.95
51849;BME280;38952;51.090;-1.832;2023-02-01T13:47:39;101341.38;;;8.86;74.34
51849;BME280;38952;51.090;-1.832;2023-02-01T13:50:38;101384.66;;;9.13;75.36
51849;BME280;38952;51.090;-1.832;2023-02-01T13:56:24;101387.72;;;9.04;74.62
51849;BME280;38952;51.090;-1.832;2023-02-01T13:58:51;101353.88;;;8.94;74.60
51849;BME280;38952;51.090;-1.832;2023-02-01T14:04:44;101358.03;;;8.96;75.14
51849;BME280;38952;51.090;-1.832;2023-02-01T14:06:51;101364.56;;;8.95;75.49
51849;BME280;38952;51.090;-1.832;2023-02-01T14:09:33;101362.66;;;8.96;75.20
51849;BME280;38952;51.090;-1.832;2023-02-01T14:15:32;101366.97;;;9.15;75.57
51849;BME280;38952;51.090;-1.832;2023-02-01T14:21:47;101387.69;;;9.35;76.02
51849;BME280;38952;51.090;-1.832;2023-02-01T14:24:33;101337.44;;;9.12;75.92
51849;BME280;38952;51.090;-1.832;2023-02-01T14:27:18;101344.25;;;9.33;74.97
51849;BME280;38952;51.090;-1.832;2023-02-01T14:33:01;101337.59;;;9.65;74.13
51849;BME280;38952;51.090;-1.832;2023-02-01T14:35:36;101330.19;;;10.12;72.20
51849;BME280;38952;51.090;-1.832;2023-02-01T14:38:04;101343.81;;;11.40;65.32
51849;BME280;38952;51.090;-1.832;2023-02-01T14:41:13;101338.38;;;11.79;63.99
51849;BME280;38952;51.090;-1.832;2023-02-01T14:49:56;101337.38;;;11.85;61.92
51849;BME280;38952;51.090;-1.832;2023-02-01T14:52:30;101330.75;;;12.20;61.36
51849;BME280;38952;51.090;-1.832;2023-02-01T14:55:31;101354.41;;;12.26;61.10
51849;BME280;38952;51.090;-1.832;2023-02-01T14:58:01;101328.34;;;11.67;63.56
51849;BME280;38952;51.090;-1.832;2023-02-01T15:00:29;101367.16;;;12.37;62.28
51849;BME280;38952;51.090;-1.832;2023-02-01T15:09:19;101358.03;;;13.68;56.69
51849;BME280;38952;51.090;-1.832;2023-02-01T15:15:16;101397.69;;;12.90;58.95
51849;BME280;38952;51.090;-1.832;2023-02-01T16:12:31;101422.41;;;8.48;77.44
51849;BME280;38952;51.090;-1.832;2023-02-01T16:18:41;101392.13;;;8.19;77.66
51849;BME280;38952;51.090;-1.832;2023-02-01T16:21:10;101414.06;;;8.25;77.73
51849;BME280;38952;51.090;-1.832;2023-02-01T16:23:38;101407.72;;;8.12;77.71
51849;BME280;38952;51.090;-1.832;2023-02-01T16:29:57;101397.72;;;8.06;79.00
51849;BME280;38952;51.090;-1.832;2023-02-01T16:32:28;101401.09;;;8.01;79.15
51849;BME280;38952;51.090;-1.832;2023-02-01T16:34:56;101422.88;;;8.01;79.50
51849;BME280;38952;51.090;-1.832;2023-02-01T16:37:48;101431.28;;;8.00;79.42
51849;BME280;38952;51.090;-1.832;2023-02-01T16:40:23;101400.00;;;7.84;80.31
51849;BME280;38952;51.090;-1.832;2023-02-01T16:42:51;101412.28;;;7.93;80.08
51849;BME280;38952;51.090;-1.832;2023-02-01T16:45:20;101407.94;;;7.85;80.53
51849;BME280;38952;51.090;-1.832;2023-02-01T16:47:54;101445.53;;;8.02;80.09
51849;BME280;38952;51.090;-1.832;2023-02-01T16:50:32;101409.69;;;7.80;80.74
51849;BME280;38952;51.090;-1.832;2023-02-01T16:53:14;101433.91;;;7.88;81.36
51849;BME280;38952;51.090;-1.832;2023-02-01T16:55:41;101440.22;;;7.89;81.95
51849;BME280;38952;51.090;-1.832;2023-02-01T16:58:28;101437.25;;;7.90;81.94
51849;BME280;38952;51.090;-1.832;2023-02-01T17:01:15;101443.97;;;7.88;82.81
51849;BME280;38952;51.090;-1.832;2023-02-01T17:03:41;101425.03;;;7.74;82.76
51849;BME280;38952;51.090;-1.832;2023-02-01T17:06:10;101427.34;;;7.71;82.64
51849;BME280;38952;51.090;-1.832;2023-02-01T17:08:41;101402.41;;;7.48;83.22
51849;BME280;38952;51.090;-1.832;2023-02-01T17:11:27;101425.19;;;7.54;83.58
51849;BME280;38952;51.090;-1.832;2023-02-01T17:14:31;101453.53;;;7.72;83.54
51849;BME280;38952;51.090;-1.832;2023-02-01T17:17:13;101437.25;;;7.65;83.52
51849;BME280;38952;51.090;-1.832;2023-02-01T17:19:41;101436.69;;;7.56;83.80
51849;BME280;38952;51.090;-1.832;2023-02-01T17:22:40;101435.25;;;7.54;84.09
51849;BME280;38952;51.090;-1.832;2023-02-01T17:25:14;101470.91;;;7.71;84.92
51849;BME280;38952;51.090;-1.832;2023-02-01T17:30:32;101471.13;;;7.69;85.19
51849;BME280;38952;51.090;-1.832;2023-02-01T17:33:19;101485.31;;;7.78;85.21
51849;BME280;38952;51.090;-1.832;2023-02-01T17:35:45;101458.22;;;7.58;84.26
51849;BME280;38952;51.090;-1.832;2023-02-01T17:38:12;101474.88;;;7.75;84.76
51849;BME280;38952;51.090;-1.832;2023-02-01T17:40:41;101462.97;;;7.69;84.18
51849;BME280;38952;51.090;-1.832;2023-02-01T17:43:22;101466.13;;;7.66;83.52
51849;BME280;38952;51.090;-1.832;2023-02-01T17:46:02;101464.69;;;7.63;83.72
51849;BME280;38952;51.090;-1.832;2023-02-01T17:48:48;101458.38;;;7.69;83.31
51849;BME280;38952;51.090;-1.832;2023-02-01T17:51:21;101462.53;;;7.72;83.22
51849;BME280;38952;51.090;-1.832;2023-02-01T17:53:54;101435.84;;;7.56;82.58
51849;BME280;38952;51.090;-1.832;2023-02-01T17:56:32;101447.97;;;7.60;82.61
51849;BME280;38952;51.090;-1.832;2023-02-01T17:58:58;101436.31;;;7.53;83.21
51849;BME280;38952;51.090;-1.832;2023-02-01T18:01:45;101432.19;;;7.43;83.49
51849;BME280;38952;51.090;-1.832;2023-02-01T18:04:18;101458.06;;;7.53;84.23